Time;durP1;ratioP1;P1;durP2;ratioP2;P2;SDS_P1;SDS_P2;PMS_P1;PMS_P2;Temp;Humidity;BMP_temperature;BMP_pressure;BME280_temperature;BME280_humidity;BME280_pressure;Samples;Min_cycle;Max_cycle;Signal;HPM_P1;HPM_P2
2022/11/11 00:01:58;;;;;;;8.82;1.15;;;;;;;;;;4981321;28;20168;-60
2022/11/11 00:04:42;;;;;;;5.88;1.15;;;;;;;;;;4983152;28;20050;-60
2022/11/11 00:07:27;;;;;;;4.82;1.20;;;;;;;;;;4985082;28;20049;-60
2022/11/11 00:10:11;;;;;;;11.32;1.30;;;;;;;;;;4987604;28;20068;-60
2022/11/11 00:13:04;;;;;;;7.68;1.23;;;;;;;;;;4973707;28;20041;-60
2022/11/11 00:15:48;;;;;;;6.10;0.90;;;;;;;;;;4973589;28;20049;-60
2022/11/11 00:27:34;;;;;;;;;;;;;;;;;;4993321;28;20123;-61
2022/11/11 00:30:18;;;;;;;4.32;0.63;;;;;;;;;;4973418;28;20409;-60
2022/11/11 00:33:03;;;;;;;3.47;1.20;;;;;;;;;;4986714;28;20511;-60
2022/11/11 00:35:54;;;;;;;8.70;1.27;;;;;;;;;;4992692;28;20091;-60
2022/11/11 00:38:45;;;;;;;9.50;1.27;;;;;;;;;;4992664;28;20103;-61
2022/11/11 00:41:29;;;;;;;5.93;1.00;;;;;;;;;;4992741;28;20096;-60
2022/11/11 00:44:14;;;;;;;3.42;0.80;;;;;;;;;;4992645;28;20042;-60
2022/11/11 00:53:12;;;;;;;3.50;0.80;;;;;;;;;;4973289;28;20012;-60
2022/11/11 00:55:57;;;;;;;10.77;1.30;;;;;;;;;;4990721;28;20057;-60
2022/11/11 00:58:41;;;;;;;4.10;1.20;;;;;;;;;;4986318;28;20558;-60
2022/11/11 01:01:26;;;;;;;6.72;0.82;;;;;;;;;;4973223;28;20049;-60
2022/11/11 01:04:10;;;;;;;5.10;1.35;;;;;;;;;;4972968;28;20409;-60
2022/11/11 01:06:55;;;;;;;6.68;1.45;;;;;;;;;;4972955;28;20054;-60
2022/11/11 01:09:39;;;;;;;6.38;1.10;;;;;;;;;;4972624;28;20046;-60
2022/11/11 01:12:24;;;;;;;9.63;1.30;;;;;;;;;;4972847;28;20045;-60
2022/11/11 01:15:08;;;;;;;8.02;1.20;;;;;;;;;;4973109;28;20454;-60
2022/11/11 01:17:53;;;;;;;5.53;1.25;;;;;;;;;;4978224;28;20108;-60
2022/11/11 01:20:38;;;;;;;11.68;1.52;;;;;;;;;;4991713;28;20045;-61
2022/11/11 01:23:23;;;;;;;3.35;0.88;;;;;;;;;;4992230;28;20040;-60
2022/11/11 01:26:10;;;;;;;4.00;1.00;;;;;;;;;;4992201;28;20497;-61
2022/11/11 01:28:56;;;;;;;4.78;0.95;;;;;;;;;;4992114;28;20400;-60
2022/11/11 01:31:41;;;;;;;5.00;1.20;;;;;;;;;;4991788;28;20088;-60
2022/11/11 01:34:26;;;;;;;9.15;1.50;;;;;;;;;;4992077;28;20115;-60
2022/11/11 01:37:11;;;;;;;2.60;1.08;;;;;;;;;;4992207;28;20510;-60
2022/11/11 01:39:55;;;;;;;5.25;1.10;;;;;;;;;;4991723;28;20042;-60
2022/11/11 01:42:53;;;;;;;4.65;1.30;;;;;;;;;;4990736;28;20045;-61
2022/11/11 01:45:50;;;;;;;5.45;1.20;;;;;;;;;;4992043;28;20441;-60
2022/11/11 01:51:38;;;;;;;;;;;;;;;;;;4992083;28;20056;-61
2022/11/11 01:54:27;;;;;;;4.60;0.90;;;;;;;;;;4991312;28;19917;-61
2022/11/11 01:57:12;;;;;;;7.28;1.10;;;;;;;;;;4972273;28;20053;-61
2022/11/11 01:59:59;;;;;;;4.45;0.85;;;;;;;;;;4971885;28;20049;-61
2022/11/11 02:02:47;;;;;;;9.02;1.13;;;;;;;;;;4972251;28;20089;-60
2022/11/11 02:05:41;;;;;;;8.52;1.10;;;;;;;;;;4972439;28;20050;-60
2022/11/11 02:08:33;;;;;;;5.85;0.93;;;;;;;;;;4972417;28;20044;-61
2022/11/11 02:14:34;;;;;;;4.90;1.10;;;;;;;;;;4972000;28;20057;-60
2022/11/11 02:14:38;;;;;;;2.90;0.90;;;;;;;;;;4972146;28;20053;-60
2022/11/11 02:17:23;;;;;;;5.63;1.00;;;;;;;;;;4973216;28;20111;-61
2022/11/11 02:20:09;;;;;;;3.35;1.00;;;;;;;;;;4990210;28;20051;-61
2022/11/11 02:23:07;;;;;;;5.80;1.10;;;;;;;;;;4985324;28;20095;-61
2022/11/11 02:25:53;;;;;;;2.97;0.80;;;;;;;;;;4981000;28;20038;-61
2022/11/11 02:28:38;;;;;;;6.85;1.33;;;;;;;;;;4987502;28;20533;-60
2022/11/11 02:31:29;;;;;;;4.18;0.80;;;;;;;;;;4977280;28;20083;-60
2022/11/11 02:34:14;;;;;;;6.35;1.30;;;;;;;;;;4989781;28;20073;-60
2022/11/11 02:37:00;;;;;;;6.30;1.17;;;;;;;;;;4974656;28;20037;-61
2022/11/11 02:39:45;;;;;;;10.82;1.02;;;;;;;;;;4982188;28;20042;-61
2022/11/11 02:42:30;;;;;;;10.52;1.77;;;;;;;;;;4971880;28;20084;-60
2022/11/11 02:45:15;;;;;;;2.17;0.90;;;;;;;;;;4971622;28;20049;-60
2022/11/11 02:47:59;;;;;;;8.73;0.98;;;;;;;;;;4976476;28;20111;-60
2022/11/11 02:50:44;;;;;;;7.75;1.50;;;;;;;;;;4990864;28;20053;-60
2022/11/11 02:53:28;;;;;;;8.55;1.10;;;;;;;;;;4990982;28;20069;-60
2022/11/11 02:57:05;;;;;;;7.00;1.30;;;;;;;;;;4991028;28;20111;-61
2022/11/11 02:59:17;;;;;;;6.40;1.45;;;;;;;;;;4990763;28;20050;-60
2022/11/11 03:02:02;;;;;;;4.68;1.15;;;;;;;;;;4990598;28;20045;-61
2022/11/11 03:04:46;;;;;;;6.07;1.33;;;;;;;;;;4990672;28;20085;-61
2022/11/11 03:07:31;;;;;;;9.77;2.10;;;;;;;;;;4990938;28;20131;-61
2022/11/11 03:10:16;;;;;;;4.53;1.25;;;;;;;;;;4990768;28;20053;-61
2022/11/11 03:13:01;;;;;;;3.88;1.00;;;;;;;;;;4990696;28;20080;-60
2022/11/11 03:15:45;;;;;;;5.28;1.30;;;;;;;;;;4990688;28;20107;-60
2022/11/11 03:18:30;;;;;;;8.32;1.20;;;;;;;;;;4990519;28;20053;-60
2022/11/11 03:21:14;;;;;;;9.55;1.20;;;;;;;;;;4989409;28;20498;-60
2022/11/11 03:23:59;;;;;;;7.47;1.40;;;;;;;;;;4990095;28;20091;-61
2022/11/11 03:26:43;;;;;;;5.07;1.10;;;;;;;;;;4991034;28;20172;-60
2022/11/11 03:29:28;;;;;;;12.35;1.40;;;;;;;;;;4990657;28;20053;-60
2022/11/11 03:32:12;;;;;;;5.20;1.00;;;;;;;;;;4990460;28;20137;-60
2022/11/11 03:34:56;;;;;;;6.07;1.40;;;;;;;;;;4988135;28;20049;-61
2022/11/11 03:40:45;;;;;;;5.75;1.55;;;;;;;;;;4990454;28;20188;-60
2022/11/11 03:43:32;;;;;;;7.22;1.65;;;;;;;;;;4990513;28;20042;-60
2022/11/11 03:46:17;;;;;;;3.38;1.27;;;;;;;;;;4990502;28;20490;-60
2022/11/11 03:49:01;;;;;;;6.18;1.05;;;;;;;;;;4989485;28;20562;-61
2022/11/11 03:51:46;;;;;;;5.10;1.10;;;;;;;;;;4990095;28;20046;-60
2022/11/11 03:54:30;;;;;;;10.45;1.20;;;;;;;;;;4990043;28;20107;-61
2022/11/11 03:57:30;;;;;;;6.53;1.25;;;;;;;;;;4990152;28;20145;-60
2022/11/11 04:00:24;;;;;;;7.80;1.88;;;;;;;;;;4989925;28;20049;-61
2022/11/11 04:12:26;;;;;;;6.60;0.95;;;;;;;;;;4971462;28;20041;-60
2022/11/11 04:18:14;;;;;;;6.68;1.15;;;;;;;;;;4969947;28;20042;-60
2022/11/11 04:25:47;;;;;;;;;;;;;;;;;;4980060;28;20037;-60
2022/11/11 04:27:09;;;;;;;9.70;1.40;;;;;;;;;;4972931;28;20393;-60
2022/11/11 04:29:53;;;;;;;8.40;1.17;;;;;;;;;;4981847;28;20052;-60
2022/11/11 04:32:38;;;;;;;6.10;1.20;;;;;;;;;;4984871;28;20100;-60
2022/11/11 04:35:23;;;;;;;8.18;1.50;;;;;;;;;;4988793;28;20049;-60
2022/11/11 04:41:13;;;;;;;11.30;1.70;;;;;;;;;;4932043;29;20051;-60
2022/11/11 04:47:00;;;;;;;5.57;2.22;;;;;;;;;;4932403;29;20596;-61
2022/11/11 04:49:45;;;;;;;7.50;1.15;;;;;;;;;;4932401;29;20039;-60
2022/11/11 04:52:30;;;;;;;10.02;1.38;;;;;;;;;;4932622;29;20523;-60
2022/11/11 04:58:18;;;;;;;;;;;;;;;;;;4933230;29;20058;-60
2022/11/11 05:01:03;;;;;;;4.82;1.05;;;;;;;;;;4929791;28;19929;-60
2022/11/11 05:03:47;;;;;;;7.25;1.02;;;;;;;;;;4924738;28;20046;-60
2022/11/11 05:09:35;;;;;;;5.85;1.27;;;;;;;;;;4932875;29;20031;-60
2022/11/11 05:12:20;;;;;;;7.00;1.45;;;;;;;;;;4929044;29;20047;-60
2022/11/11 05:21:32;;;;;;;5.32;1.70;;;;;;;;;;5040943;28;20036;-60
2022/11/11 05:27:20;;;;;;;5.55;1.40;;;;;;;;;;5052545;28;20081;-60
2022/11/11 05:30:05;;;;;;;10.27;1.80;;;;;;;;;;5052286;28;20079;-61
2022/11/11 05:32:50;;;;;;;9.52;1.50;;;;;;;;;;5051929;28;20079;-61
2022/11/11 05:35:35;;;;;;;8.90;1.55;;;;;;;;;;5052470;28;20485;-60
2022/11/11 05:38:20;;;;;;;13.07;1.80;;;;;;;;;;5051895;28;20040;-60
2022/11/11 05:41:05;;;;;;;8.43;1.65;;;;;;;;;;5036558;28;20027;-60
2022/11/11 05:43:49;;;;;;;5.38;1.40;;;;;;;;;;5041426;28;20067;-60
2022/11/11 05:46:34;;;;;;;9.43;1.70;;;;;;;;;;5038847;28;20122;-60
2022/11/11 05:49:19;;;;;;;8.32;2.30;;;;;;;;;;5027480;28;20168;-60
2022/11/11 05:52:04;;;;;;;10.40;1.50;;;;;;;;;;5006154;28;20038;-60
2022/11/11 05:54:49;;;;;;;7.30;1.65;;;;;;;;;;4979656;28;20430;-61
2022/11/11 05:57:33;;;;;;;7.22;2.17;;;;;;;;;;4997611;28;20045;-61
2022/11/11 06:00:18;;;;;;;8.98;1.58;;;;;;;;;;4982419;28;20096;-60
2022/11/11 06:03:04;;;;;;;6.13;1.70;;;;;;;;;;4993869;28;20453;-60
2022/11/11 06:05:50;;;;;;;7.70;1.98;;;;;;;;;;4979616;28;20104;-60
2022/11/11 06:08:35;;;;;;;6.55;1.75;;;;;;;;;;4980165;28;20076;-60
2022/11/11 06:11:20;;;;;;;6.57;1.83;;;;;;;;;;4993564;28;20514;-60
2022/11/11 06:14:04;;;;;;;8.18;1.77;;;;;;;;;;4981254;28;20041;-60
2022/11/11 06:16:49;;;;;;;6.88;2.75;;;;;;;;;;4979249;28;20042;-60
2022/11/11 06:19:34;;;;;;;11.00;1.80;;;;;;;;;;4980646;28;20034;-61
2022/11/11 06:22:54;;;;;;;13.13;1.92;;;;;;;;;;4980863;28;21302;-60
2022/11/11 06:28:31;;;;;;;7.53;1.60;;;;;;;;;;4980604;28;20077;-61
2022/11/11 06:31:17;;;;;;;10.32;1.92;;;;;;;;;;4980496;28;20180;-61
2022/11/11 06:34:02;;;;;;;7.05;1.70;;;;;;;;;;4979629;28;20169;-60
2022/11/11 06:36:46;;;;;;;7.25;1.35;;;;;;;;;;4980368;28;20037;-60
2022/11/11 06:39:31;;;;;;;9.50;1.90;;;;;;;;;;4986222;28;20041;-60
2022/11/11 06:42:16;;;;;;;7.13;1.67;;;;;;;;;;4977403;28;20118;-61
2022/11/11 06:45:00;;;;;;;10.95;1.80;;;;;;;;;;4981645;28;20127;-60
2022/11/11 06:47:45;;;;;;;7.32;1.65;;;;;;;;;;4979774;28;20038;-60
2022/11/11 06:50:30;;;;;;;4.70;1.48;;;;;;;;;;4979456;28;20153;-60
2022/11/11 06:53:16;;;;;;;6.95;1.60;;;;;;;;;;4982753;28;20045;-60
2022/11/11 06:56:01;;;;;;;7.22;1.90;;;;;;;;;;4980095;28;20379;-60
2022/11/11 06:58:45;;;;;;;10.05;1.88;;;;;;;;;;4979496;28;20057;-60
2022/11/11 07:01:30;;;;;;;7.78;2.00;;;;;;;;;;4980870;28;20123;-60
2022/11/11 07:04:14;;;;;;;16.98;2.30;;;;;;;;;;4983071;28;20066;-60
2022/11/11 07:06:59;;;;;;;5.55;1.90;;;;;;;;;;4982867;28;20045;-60
2022/11/11 07:09:43;;;;;;;7.95;2.60;;;;;;;;;;4990083;28;20063;-60
2022/11/11 07:12:29;;;;;;;9.95;1.88;;;;;;;;;;4985479;28;20403;-60
2022/11/11 07:15:13;;;;;;;8.43;1.95;;;;;;;;;;4986684;28;20040;-60
2022/11/11 07:17:58;;;;;;;9.48;1.98;;;;;;;;;;4986637;28;20552;-60
2022/11/11 07:20:42;;;;;;;8.88;2.10;;;;;;;;;;4985354;28;20471;-60
2022/11/11 07:23:27;;;;;;;5.85;2.22;;;;;;;;;;4983629;28;20392;-60
2022/11/11 07:26:11;;;;;;;7.30;2.15;;;;;;;;;;4989559;28;20042;-60
2022/11/11 07:28:56;;;;;;;5.00;1.80;;;;;;;;;;4982161;28;20046;-60
2022/11/11 07:31:41;;;;;;;10.00;1.70;;;;;;;;;;4987982;28;20050;-60
2022/11/11 07:34:27;;;;;;;6.28;2.22;;;;;;;;;;4981487;28;20037;-60
2022/11/11 07:37:12;;;;;;;8.27;2.60;;;;;;;;;;4985845;28;20081;-61
2022/11/11 07:39:56;;;;;;;9.68;2.67;;;;;;;;;;4975892;28;20096;-60
2022/11/11 07:42:42;;;;;;;7.75;2.38;;;;;;;;;;4987218;28;20132;-61
2022/11/11 07:45:26;;;;;;;8.77;2.50;;;;;;;;;;4988467;28;20050;-60
2022/11/11 07:48:11;;;;;;;16.30;4.05;;;;;;;;;;4983415;28;20094;-60
2022/11/11 07:50:55;;;;;;;12.00;3.53;;;;;;;;;;4986260;28;20545;-61
2022/11/11 07:53:40;;;;;;;10.82;4.03;;;;;;;;;;4984814;28;20077;-61
2022/11/11 07:56:25;;;;;;;9.32;3.05;;;;;;;;;;4997231;28;20124;-60
2022/11/11 07:59:09;;;;;;;8.45;2.40;;;;;;;;;;4986926;28;20092;-61
2022/11/11 08:01:54;;;;;;;6.30;1.90;;;;;;;;;;4988052;28;20056;-61
2022/11/11 08:04:39;;;;;;;12.20;1.83;;;;;;;;;;4988095;28;20060;-61
2022/11/11 08:07:23;;;;;;;6.55;2.00;;;;;;;;;;4971920;28;20118;-61
2022/11/11 08:10:08;;;;;;;12.82;4.10;;;;;;;;;;4985308;28;20067;-61
2022/11/11 08:15:57;;;;;;;14.18;3.55;;;;;;;;;;4982727;28;20118;-61
2022/11/11 08:18:41;;;;;;;5.85;2.05;;;;;;;;;;4983212;28;20046;-67
2022/11/11 08:21:26;;;;;;;7.25;2.50;;;;;;;;;;4986874;28;20416;-60
2022/11/11 08:24:10;;;;;;;9.48;2.00;;;;;;;;;;4984690;28;20693;-61
2022/11/11 08:26:55;;;;;;;6.18;2.35;;;;;;;;;;4990196;28;20049;-60
2022/11/11 08:29:39;;;;;;;10.65;3.67;;;;;;;;;;4984891;28;20126;-61
2022/11/11 08:32:24;;;;;;;6.80;2.78;;;;;;;;;;4985225;28;20041;-61
2022/11/11 08:35:08;;;;;;;8.48;2.50;;;;;;;;;;4982084;28;20424;-60
2022/11/11 08:37:53;;;;;;;7.82;2.40;;;;;;;;;;4982536;28;20049;-60
2022/11/11 08:40:38;;;;;;;10.52;3.63;;;;;;;;;;4984352;28;20092;-60
2022/11/11 08:43:22;;;;;;;6.00;2.28;;;;;;;;;;4984457;28;20077;-61
2022/11/11 08:46:07;;;;;;;8.18;2.28;;;;;;;;;;4979361;28;20081;-61
2022/11/11 08:48:51;;;;;;;6.18;2.33;;;;;;;;;;4979595;28;20097;-60
2022/11/11 08:51:36;;;;;;;14.27;2.30;;;;;;;;;;4981000;28;20045;-61
2022/11/11 08:54:20;;;;;;;6.63;2.33;;;;;;;;;;4990325;28;20407;-61
2022/11/11 08:57:05;;;;;;;11.60;3.33;;;;;;;;;;4975832;28;20126;-61
2022/11/11 08:59:50;;;;;;;8.05;2.45;;;;;;;;;;4985352;28;20038;-60
2022/11/11 09:02:34;;;;;;;9.98;3.05;;;;;;;;;;4979212;28;20093;-60
2022/11/11 09:05:19;;;;;;;11.10;2.90;;;;;;;;;;4980619;28;20046;-60
2022/11/11 09:08:06;;;;;;;6.50;3.40;;;;;;;;;;4987618;28;20072;-60
2022/11/11 09:10:51;;;;;;;9.15;3.55;;;;;;;;;;4988851;28;20056;-61
2022/11/11 09:13:35;;;;;;;12.68;3.55;;;;;;;;;;4989166;28;20037;-60
2022/11/11 09:16:20;;;;;;;14.55;3.42;;;;;;;;;;4982523;28;20555;-60
2022/11/11 09:19:05;;;;;;;6.93;3.25;;;;;;;;;;4986096;28;20076;-60
2022/11/11 09:21:52;;;;;;;9.27;3.58;;;;;;;;;;4987300;28;20121;-60
2022/11/11 09:24:37;;;;;;;10.68;2.72;;;;;;;;;;4981124;28;20045;-60
2022/11/11 09:27:22;;;;;;;8.25;2.65;;;;;;;;;;4985551;28;20058;-60
2022/11/11 09:30:07;;;;;;;6.50;2.28;;;;;;;;;;4987609;28;20042;-60
2022/11/11 09:32:52;;;;;;;6.38;2.40;;;;;;;;;;4989392;28;20040;-60
2022/11/11 09:35:36;;;;;;;6.50;2.85;;;;;;;;;;4984414;28;20096;-61
2022/11/11 09:38:21;;;;;;;6.63;2.42;;;;;;;;;;4987021;28;20049;-61
2022/11/11 09:41:12;;;;;;;5.05;2.38;;;;;;;;;;4984798;28;20042;-61
2022/11/11 09:43:59;;;;;;;11.98;2.45;;;;;;;;;;4984592;28;20045;-60
2022/11/11 09:46:53;;;;;;;10.43;2.92;;;;;;;;;;4978980;28;20029;-61
2022/11/11 09:49:38;;;;;;;6.18;2.25;;;;;;;;;;4984929;28;20095;-61
2022/11/11 09:52:25;;;;;;;7.78;2.30;;;;;;;;;;4987184;28;20061;-61
2022/11/11 09:55:19;;;;;;;7.22;2.50;;;;;;;;;;4987021;28;20037;-61
2022/11/11 09:58:03;;;;;;;;;;;;;;;;;;4987517;28;20046;-60
2022/11/11 10:00:52;;;;;;;8.48;2.17;;;;;;;;;;4986931;28;19920;-60
2022/11/11 10:03:48;;;;;;;9.05;2.50;;;;;;;;;;4987670;28;20419;-61
2022/11/11 10:06:33;;;;;;;5.65;2.10;;;;;;;;;;4986550;28;20044;-61
2022/11/11 10:09:21;;;;;;;5.15;1.90;;;;;;;;;;4982677;28;20053;-60
2022/11/11 10:12:11;;;;;;;9.00;2.63;;;;;;;;;;4979078;28;20053;-61
2022/11/11 10:14:56;;;;;;;11.70;2.55;;;;;;;;;;4981420;28;20446;-60
2022/11/11 10:17:46;;;;;;;11.43;2.55;;;;;;;;;;4979349;28;20331;-61
2022/11/11 10:20:37;;;;;;;7.32;2.63;;;;;;;;;;4983044;28;20041;-61
2022/11/11 10:23:40;;;;;;;9.77;2.30;;;;;;;;;;4985611;28;20045;-60
2022/11/11 10:26:30;;;;;;;4.35;1.92;;;;;;;;;;4982999;28;20079;-60
2022/11/11 10:29:19;;;;;;;9.75;2.75;;;;;;;;;;4981920;28;20053;-61
2022/11/11 10:32:08;;;;;;;8.63;1.75;;;;;;;;;;4984520;28;20038;-61
2022/11/11 10:34:54;;;;;;;8.48;2.80;;;;;;;;;;4982125;28;20041;-61
2022/11/11 10:37:39;;;;;;;7.80;2.72;;;;;;;;;;4982468;28;20069;-60
2022/11/11 10:40:29;;;;;;;8.60;2.33;;;;;;;;;;4984286;28;20100;-60
2022/11/11 10:43:19;;;;;;;6.75;2.13;;;;;;;;;;4975012;28;20395;-61
2022/11/11 10:46:20;;;;;;;5.57;1.70;;;;;;;;;;4976489;28;20038;-61
2022/11/11 10:49:11;;;;;;;3.00;1.40;;;;;;;;;;4975826;28;20034;-61
2022/11/11 10:52:00;;;;;;;6.40;2.22;;;;;;;;;;4971383;28;20044;-61
2022/11/11 10:55:05;;;;;;;5.68;2.22;;;;;;;;;;4974593;28;20039;-61
2022/11/11 10:57:59;;;;;;;3.50;1.58;;;;;;;;;;4974258;28;20479;-61
2022/11/11 11:00:45;;;;;;;4.93;1.65;;;;;;;;;;4973808;28;20041;-61
2022/11/11 11:03:32;;;;;;;8.10;1.58;;;;;;;;;;4972126;28;20420;-61
2022/11/11 11:06:22;;;;;;;4.97;1.60;;;;;;;;;;4980061;28;20071;-62
2022/11/11 11:09:26;;;;;;;4.82;1.52;;;;;;;;;;4970613;28;20096;-60
2022/11/11 11:12:17;;;;;;;1.67;0.98;;;;;;;;;;4981777;28;20163;-61
2022/11/11 11:15:03;;;;;;;4.13;1.20;;;;;;;;;;4984193;28;20067;-60
2022/11/11 11:17:53;;;;;;;4.13;1.30;;;;;;;;;;4981165;28;20079;-61
2022/11/11 11:20:38;;;;;;;4.53;1.30;;;;;;;;;;4980421;28;20033;-61
2022/11/11 11:23:41;;;;;;;3.60;1.30;;;;;;;;;;4983870;28;20411;-61
2022/11/11 11:26:41;;;;;;;7.28;1.73;;;;;;;;;;4984612;28;20672;-60
2022/11/11 11:29:26;;;;;;;7.57;1.67;;;;;;;;;;4983179;28;20068;-61
2022/11/11 11:32:11;;;;;;;3.10;1.35;;;;;;;;;;4984335;28;20064;-61
2022/11/11 11:34:56;;;;;;;2.47;1.10;;;;;;;;;;4983639;28;20037;-61
2022/11/11 11:37:51;;;;;;;5.43;1.30;;;;;;;;;;4983508;28;20675;-61
2022/11/11 11:40:49;;;;;;;2.35;1.25;;;;;;;;;;4982436;28;20410;-61
2022/11/11 11:43:35;;;;;;;1.88;0.90;;;;;;;;;;4981127;28;20046;-61
2022/11/11 11:46:27;;;;;;;2.45;1.10;;;;;;;;;;4986934;28;20037;-61
2022/11/11 11:49:30;;;;;;;1.48;0.98;;;;;;;;;;4985643;28;20037;-61
2022/11/11 11:52:20;;;;;;;2.97;1.83;;;;;;;;;;4984781;28;20088;-61
2022/11/11 11:55:11;;;;;;;3.63;1.20;;;;;;;;;;4983625;28;20049;-61
2022/11/11 11:58:02;;;;;;;6.97;1.38;;;;;;;;;;4983882;28;20046;-61
2022/11/11 12:01:23;;;;;;;8.15;1.58;;;;;;;;;;4984449;28;20045;-61
2022/11/11 12:04:08;;;;;;;3.63;1.25;;;;;;;;;;4909614;29;20142;-61
2022/11/11 12:07:24;;;;;;;2.33;1.00;;;;;;;;;;4906383;29;20541;-61
2022/11/11 12:10:15;;;;;;;3.13;1.38;;;;;;;;;;4923008;29;20040;-61
2022/11/11 12:13:08;;;;;;;2.55;1.42;;;;;;;;;;4907798;29;20043;-61
2022/11/11 12:15:54;;;;;;;;;;;;;;;;;;4909679;29;20038;-61
2022/11/11 12:18:57;;;;;;;2.90;1.23;;;;;;;;;;4909920;28;19922;-61
2022/11/11 12:21:49;;;;;;;2.05;1.42;;;;;;;;;;4909182;29;20055;-61
2022/11/11 12:24:36;;;;;;;3.77;1.47;;;;;;;;;;4905975;29;20083;-61
2022/11/11 12:27:33;;;;;;;3.08;1.20;;;;;;;;;;4906722;29;20118;-61
2022/11/11 12:30:19;;;;;;;3.40;1.35;;;;;;;;;;4905455;29;20054;-61
2022/11/11 12:33:05;;;;;;;4.68;1.50;;;;;;;;;;4907564;29;20040;-61
2022/11/11 12:35:52;;;;;;;2.55;1.27;;;;;;;;;;4908975;29;20051;-61
2022/11/11 12:38:39;;;;;;;4.85;1.25;;;;;;;;;;4967323;28;20103;-61
2022/11/11 12:41:42;;;;;;;6.88;1.70;;;;;;;;;;4983440;28;20053;-61
2022/11/11 12:44:47;;;;;;;2.97;1.52;;;;;;;;;;4981034;28;20046;-61
2022/11/11 12:47:38;;;;;;;4.50;1.33;;;;;;;;;;4986949;28;20117;-61
2022/11/11 12:50:23;;;;;;;6.93;1.63;;;;;;;;;;4984737;28;20084;-61
2022/11/11 12:53:08;;;;;;;6.72;1.77;;;;;;;;;;4971507;28;20411;-61
2022/11/11 12:55:58;;;;;;;3.00;1.80;;;;;;;;;;4976403;28;20119;-61
2022/11/11 12:58:52;;;;;;;4.40;1.70;;;;;;;;;;4974200;28;20564;-61
2022/11/11 13:01:50;;;;;;;3.15;1.38;;;;;;;;;;4972901;28;20033;-61
2022/11/11 13:04:45;;;;;;;2.67;1.55;;;;;;;;;;4975748;28;20092;-61
2022/11/11 13:07:36;;;;;;;2.85;2.17;;;;;;;;;;4982552;28;20037;-61
2022/11/11 13:10:25;;;;;;;2.60;1.63;;;;;;;;;;4985979;28;20200;-61
2022/11/11 13:13:25;;;;;;;5.90;1.40;;;;;;;;;;4986063;28;20456;-60
2022/11/11 13:16:10;;;;;;;2.78;1.77;;;;;;;;;;4986880;28;20092;-61
2022/11/11 13:18:58;;;;;;;4.28;1.30;;;;;;;;;;4989059;28;20128;-61
2022/11/11 13:21:48;;;;;;;4.55;1.98;;;;;;;;;;4987252;28;20165;-61
2022/11/11 13:24:32;;;;;;;4.38;1.35;;;;;;;;;;4987619;28;20054;-61
2022/11/11 13:27:20;;;;;;;3.42;1.50;;;;;;;;;;4988776;28;20038;-61
2022/11/11 13:30:05;;;;;;;8.05;1.65;;;;;;;;;;4988754;28;20057;-61
2022/11/11 13:32:56;;;;;;;2.50;1.20;;;;;;;;;;4988537;28;20545;-61
2022/11/11 13:35:46;;;;;;;5.10;1.42;;;;;;;;;;4987285;28;20044;-61
2022/11/11 13:38:36;;;;;;;6.13;1.95;;;;;;;;;;4988167;28;20046;-60
2022/11/11 13:41:25;;;;;;;4.70;1.52;;;;;;;;;;4984787;28;20794;-61
2022/11/11 13:44:18;;;;;;;8.63;1.85;;;;;;;;;;4985177;28;20126;-61
2022/11/11 13:47:11;;;;;;;3.88;1.80;;;;;;;;;;4984852;28;20545;-61
2022/11/11 13:49:59;;;;;;;6.53;2.22;;;;;;;;;;4986226;28;20084;-61
2022/11/11 13:52:53;;;;;;;7.35;1.80;;;;;;;;;;4984759;28;20032;-61
2022/11/11 13:55:42;;;;;;;2.92;1.40;;;;;;;;;;4980368;28;20512;-61
2022/11/11 13:58:35;;;;;;;3.17;1.80;;;;;;;;;;4972400;28;20108;-61
2022/11/11 14:01:20;;;;;;;4.38;2.05;;;;;;;;;;4975734;28;20095;-61
2022/11/11 14:04:06;;;;;;;5.13;2.10;;;;;;;;;;4973802;28;20089;-61
2022/11/11 14:06:52;;;;;;;5.47;1.85;;;;;;;;;;4972263;28;20050;-61
2022/11/11 14:09:53;;;;;;;6.28;2.20;;;;;;;;;;4971969;28;20085;-61
2022/11/11 14:12:39;;;;;;;4.65;1.95;;;;;;;;;;4976624;28;20092;-61
2022/11/11 14:16:02;;;;;;;6.93;1.60;;;;;;;;;;4974266;28;20044;-60
2022/11/11 14:18:47;;;;;;;11.27;2.53;;;;;;;;;;4907635;28;20051;-61
2022/11/11 14:21:53;;;;;;;6.63;2.08;;;;;;;;;;4903999;29;20205;-61
2022/11/11 14:24:43;;;;;;;4.40;2.08;;;;;;;;;;4907403;29;20094;-61
2022/11/11 14:27:30;;;;;;;4.47;1.77;;;;;;;;;;4908362;28;20067;-61
2022/11/11 14:30:27;;;;;;;4.40;1.67;;;;;;;;;;4904389;29;20426;-61
2022/11/11 14:33:34;;;;;;;3.25;1.63;;;;;;;;;;4907647;29;20070;-61
2022/11/11 14:36:23;;;;;;;8.82;2.92;;;;;;;;;;4907819;28;20074;-61
2022/11/11 14:39:18;;;;;;;6.07;2.20;;;;;;;;;;4902887;29;20114;-61
2022/11/11 14:42:03;;;;;;;5.28;2.30;;;;;;;;;;4908119;28;20042;-60
2022/11/11 14:44:47;;;;;;;4.78;2.00;;;;;;;;;;4907023;28;20502;-60
2022/11/11 14:47:32;;;;;;;6.35;2.00;;;;;;;;;;4907862;29;20055;-61
2022/11/11 14:50:43;;;;;;;3.25;1.70;;;;;;;;;;4977366;28;20091;-61
2022/11/11 14:53:33;;;;;;;5.78;2.60;;;;;;;;;;4985379;28;20568;-61
2022/11/11 14:56:19;;;;;;;11.43;2.88;;;;;;;;;;4980046;28;20041;-60
2022/11/11 14:59:07;;;;;;;4.38;2.40;;;;;;;;;;4977909;28;20069;-61
2022/11/11 15:01:53;;;;;;;6.82;2.13;;;;;;;;;;4977337;28;20095;-60
2022/11/11 15:04:39;;;;;;;6.63;2.78;;;;;;;;;;4977399;28;20526;-61
2022/11/11 15:07:42;;;;;;;5.63;2.42;;;;;;;;;;4976994;28;20073;-61
2022/11/11 15:10:32;;;;;;;9.07;2.53;;;;;;;;;;4978184;28;20038;-61
2022/11/11 15:13:35;;;;;;;4.47;1.92;;;;;;;;;;4977150;28;20041;-60
2022/11/11 15:16:43;;;;;;;6.57;2.45;;;;;;;;;;4977020;28;20113;-61
2022/11/11 15:19:28;;;;;;;6.43;2.80;;;;;;;;;;5045288;28;20135;-61
2022/11/11 15:22:31;;;;;;;9.45;2.33;;;;;;;;;;5045819;28;20537;-61
2022/11/11 15:25:28;;;;;;;3.42;1.85;;;;;;;;;;5044606;28;20753;-61
2022/11/11 15:28:21;;;;;;;3.60;2.35;;;;;;;;;;5045632;28;20124;-60
2022/11/11 15:31:09;;;;;;;6.88;2.30;;;;;;;;;;5043106;28;20111;-61
2022/11/11 15:34:16;;;;;;;4.82;2.50;;;;;;;;;;5045078;28;20553;-61
2022/11/11 15:37:02;;;;;;;5.60;2.13;;;;;;;;;;5042660;28;20500;-60
2022/11/11 15:39:47;;;;;;;5.53;2.53;;;;;;;;;;5046070;28;20139;-60
2022/11/11 15:42:38;;;;;;;5.72;2.53;;;;;;;;;;5045069;28;20062;-60
2022/11/11 15:45:24;;;;;;;7.60;2.67;;;;;;;;;;5045135;28;20123;-60
2022/11/11 15:48:17;;;;;;;8.43;2.90;;;;;;;;;;5046668;28;20036;-61
2022/11/11 15:51:17;;;;;;;9.93;2.50;;;;;;;;;;5046515;28;20064;-60
2022/11/11 15:54:21;;;;;;;5.53;2.67;;;;;;;;;;5047659;28;20127;-60
2022/11/11 15:57:16;;;;;;;5.22;2.15;;;;;;;;;;4984477;28;20096;-60
2022/11/11 16:00:02;;;;;;;7.03;2.53;;;;;;;;;;4973708;28;20555;-60
2022/11/11 16:02:46;;;;;;;7.57;2.28;;;;;;;;;;4973079;28;20694;-61
2022/11/11 16:05:31;;;;;;;4.57;2.28;;;;;;;;;;4979265;28;20046;-60
2022/11/11 16:08:19;;;;;;;6.43;2.38;;;;;;;;;;4974368;28;20526;-60
2022/11/11 16:11:04;;;;;;;5.15;2.38;;;;;;;;;;4973435;28;20046;-61
2022/11/11 16:13:54;;;;;;;5.78;2.30;;;;;;;;;;4976210;28;20037;-61
2022/11/11 16:16:40;;;;;;;6.40;2.45;;;;;;;;;;4984665;28;20069;-60
2022/11/11 16:19:24;;;;;;;5.80;2.28;;;;;;;;;;4978636;28;20088;-61
2022/11/11 16:22:13;;;;;;;5.65;2.30;;;;;;;;;;4979311;28;20049;-60
2022/11/11 16:24:58;;;;;;;6.00;2.75;;;;;;;;;;4976254;28;20084;-60
2022/11/11 16:27:44;;;;;;;6.88;2.47;;;;;;;;;;4970907;28;20030;-60
2022/11/11 16:30:33;;;;;;;3.55;2.42;;;;;;;;;;4977048;28;20525;-60
2022/11/11 16:33:19;;;;;;;8.23;2.65;;;;;;;;;;4974428;28;20120;-60
2022/11/11 16:36:08;;;;;;;6.90;2.72;;;;;;;;;;4976802;28;20132;-61
2022/11/11 16:38:53;;;;;;;5.30;2.72;;;;;;;;;;4975618;28;20430;-60
2022/11/11 16:41:40;;;;;;;7.45;2.70;;;;;;;;;;4978959;28;20080;-60
2022/11/11 16:44:25;;;;;;;6.65;2.58;;;;;;;;;;4985906;28;20034;-60
2022/11/11 16:47:33;;;;;;;4.60;2.60;;;;;;;;;;4974309;28;20075;-60
2022/11/11 16:50:20;;;;;;;5.25;2.55;;;;;;;;;;4974600;28;20077;-60
2022/11/11 16:53:06;;;;;;;5.38;2.85;;;;;;;;;;4978234;28;20045;-60
2022/11/11 16:55:51;;;;;;;5.95;2.83;;;;;;;;;;4974269;28;20061;-60
2022/11/11 16:58:39;;;;;;;9.02;2.78;;;;;;;;;;4975338;28;20042;-61
2022/11/11 17:01:24;;;;;;;6.65;2.78;;;;;;;;;;4978016;28;20400;-60
2022/11/11 17:04:09;;;;;;;5.40;2.85;;;;;;;;;;4976924;28;20073;-61
2022/11/11 17:06:55;;;;;;;7.05;3.97;;;;;;;;;;4975826;28;20040;-60
2022/11/11 17:09:41;;;;;;;8.13;3.17;;;;;;;;;;4978000;28;20527;-60
2022/11/11 17:12:31;;;;;;;5.85;3.00;;;;;;;;;;4975729;28;20053;-61
2022/11/11 17:15:16;;;;;;;7.60;3.28;;;;;;;;;;4987476;28;20416;-61
2022/11/11 17:18:01;;;;;;;8.43;3.42;;;;;;;;;;4979383;28;20514;-60
2022/11/11 17:20:45;;;;;;;8.82;4.20;;;;;;;;;;4980051;28;20091;-60
2022/11/11 17:23:30;;;;;;;9.40;3.92;;;;;;;;;;4977361;28;20117;-61
2022/11/11 17:26:16;;;;;;;7.90;3.45;;;;;;;;;;4972411;28;20034;-61
2022/11/11 17:29:01;;;;;;;6.10;3.38;;;;;;;;;;4976508;28;20628;-61
2022/11/11 17:31:46;;;;;;;7.63;3.72;;;;;;;;;;4981544;28;20473;-61
2022/11/11 17:34:30;;;;;;;17.77;7.68;;;;;;;;;;4985205;28;20084;-60
2022/11/11 17:37:15;;;;;;;27.35;13.35;;;;;;;;;;4981650;28;20095;-60
2022/11/11 17:39:59;;;;;;;16.25;9.27;;;;;;;;;;4979644;28;20064;-60
2022/11/11 17:42:44;;;;;;;14.05;9.68;;;;;;;;;;4987077;28;20119;-60
2022/11/11 17:45:28;;;;;;;8.35;4.97;;;;;;;;;;4984306;28;20461;-61
2022/11/11 17:48:13;;;;;;;16.50;6.28;;;;;;;;;;4985338;28;20083;-60
2022/11/11 17:50:57;;;;;;;14.50;6.70;;;;;;;;;;4978949;28;20563;-61
2022/11/11 17:53:42;;;;;;;10.60;6.10;;;;;;;;;;4979664;28;20033;-61